Picton Castle — E5WP — position and weather

sailwx.info

Track history (hours):
 
Tides and Currents Weather Stations Pressure Air Temp Water Temp Dewpoint Dewpoint Depression Visibility Wind Speed Wind Dir Waves Ship Positions

Picton Castle (Cook Islands)

Ship's website: http://www.picton-castle.com/

Last reported at 2016-Jun-08 02:17 UTC. Time now 2016-Jun-25 17:55 UTC.
Position N 45°24' W 002°59'.
Warning: this ship's position is 17 days out of date.

; draft 4.4 m.

Type: Sailing vessel. MMSI: 518000019.

Date/timePositionNaut miles runAvg speedWind from/ knotsBaromVisibWave heightAir tempDewpointWater temp
2016-Jun-08 02:17N 45°24' W 002°59'6 6.5
2016-Jun-08 01:26N 45°25' W 002°52'6 6.6
2016-Jun-08 00:33N 45°27' W 002°44'7 6.6
2016-Jun-07 23:33N 45°29' W 002°35'7 7.4
2016-Jun-07 22:33N 45°31' W 002°25'8 7.9
2016-Jun-07 21:33N 45°34' W 002°14'8 8.1
2016-Jun-07 20:33N 45°37' W 002°04'6 6.5
2016-Jun-07 19:33N 45°40' W 001°55'6 4.4
2016-Jun-07 18:14N 45°43' W 001°48'3 4.0
2016-Jun-07 17:33N 45°46' W 001°46'9 4.1
2016-Jun-07 15:24N 45°53' W 001°40'4 4.4
2016-Jun-07 14:32N 45°56' W 001°37'5 4.4
2016-Jun-07 13:24N 46°00' W 001°32'9 3.2
2016-Jun-07 10:33N 46°08' W 001°25'3 2.6
2016-Jun-07 09:28N 46°06' W 001°22'3 2.9
2016-Jun-07 08:34N 46°04' W 001°20'2 2.0
2016-Jun-07 07:33N 46°05' W 001°17'2 1.8
2016-Jun-07 06:30N 46°03' W 001°18'0 0.0
2016-Jun-07 04:33N 46°03' W 001°18'0 0.0
2016-Jun-07 03:33N 46°03' W 001°18'0 0.0
2016-Jun-07 02:27N 46°03' W 001°18'0 0.0
2016-Jun-07 01:33N 46°03' W 001°18'0 0.0
2016-Jun-07 00:33N 46°03' W 001°18'0 0.0
2016-Jun-06 23:33N 46°03' W 001°18'0 0.0
2016-Jun-06 20:33N 46°03' W 001°18'0 0.0
2016-Jun-06 16:30N 46°03' W 001°18'0 0.0
2016-Jun-06 15:33N 46°03' W 001°18'0 0.0
2016-Jun-06 14:33N 46°03' W 001°18'0 0.0
2016-Jun-06 13:33N 46°03' W 001°18'0 0.0
2016-Jun-06 12:18N 46°03' W 001°18'0 0.0
2016-Jun-06 11:27N 46°03' W 001°18'0 0.0
2016-Jun-06 10:30N 46°03' W 001°18'0 0.0
2016-Jun-06 09:24N 46°03' W 001°18'0 0.0
2016-Jun-06 08:30N 46°03' W 001°18'0 0.0
2016-Jun-06 03:18N 46°03' W 001°18'0 0.0
2016-Jun-06 02:33N 46°03' W 001°18'0 0.0
2016-Jun-06 01:33N 46°03' W 001°18'0 0.0
2016-Jun-06 00:33N 46°03' W 001°18'0 0.0
2016-Jun-05 23:33N 46°03' W 001°18'0 0.0
2016-Jun-05 22:33N 46°03' W 001°18'0 0.0
2016-Jun-05 21:06N 46°03' W 001°18'0 0.0
2016-Jun-05 20:33N 46°03' W 001°18'0 0.0
2016-Jun-05 17:06N 46°03' W 001°18'0 0.1
2016-Jun-05 16:33N 46°03' W 001°18'0 0.0
2016-Jun-05 15:33N 46°03' W 001°18'0 0.0
2016-Jun-05 14:33N 46°03' W 001°18'0 0.0
2016-Jun-05 13:33N 46°03' W 001°18'0 0.0
2016-Jun-05 12:30N 46°03' W 001°18'0 0.0
2016-Jun-05 11:33N 46°03' W 001°18'0 0.0
2016-Jun-05 10:33N 46°03' W 001°18'0 0.0
2016-Jun-05 09:33N 46°03' W 001°18'0 0.0
2016-Jun-05 08:33N 46°03' W 001°18'0 0.0
2016-Jun-05 07:30N 46°03' W 001°18'0 0.0
2016-Jun-05 03:06N 46°03' W 001°18'0 0.0
2016-Jun-05 02:30N 46°03' W 001°18'0 0.0
2016-Jun-05 01:30N 46°03' W 001°18'0 0.0
2016-Jun-05 00:33N 46°03' W 001°18'0 0.0
2016-Jun-04 23:33N 46°03' W 001°18'0 0.0
2016-Jun-04 22:33N 46°03' W 001°18'0 0.0
2016-Jun-04 21:33N 46°03' W 001°18'0 0.0
2016-Jun-04 19:14N 46°03' W 001°18'0 0.0
2016-Jun-04 18:33N 46°03' W 001°18'1 0.8
2016-Jun-04 17:28N 46°04' W 001°18'4 3.9
2016-Jun-04 16:34N 46°07' W 001°14'3 3.1
2016-Jun-04 15:33N 46°09' W 001°11'1 1.4
2016-Jun-04 14:32N 46°09' W 001°09'0 0.0
2016-Jun-04 13:32N 46°09' W 001°09'0 0.0
2016-Jun-04 12:32N 46°09' W 001°09'0 0.0
2016-Jun-04 11:26N 46°09' W 001°09'0 0.0
2016-Jun-04 10:32N 46°09' W 001°09'0 0.0
2016-Jun-04 09:32N 46°09' W 001°09'0 0.0
2016-Jun-04 08:32N 46°09' W 001°09'0 0.0
2016-Jun-04 07:32N 46°09' W 001°09'0 0.0
2016-Jun-04 06:32N 46°09' W 001°09'0 0.0
2016-Jun-04 05:32N 46°09' W 001°09'0 0.0
2016-Jun-04 04:32N 46°09' W 001°09'0 0.0
2016-Jun-04 03:32N 46°09' W 001°09'0 0.0
2016-Jun-04 02:32N 46°09' W 001°09'0 0.0
2016-Jun-04 01:32N 46°09' W 001°09'0 0.0
2016-Jun-04 00:32N 46°09' W 001°09'0 0.0
2016-Jun-03 23:32N 46°09' W 001°09'0 0.0
2016-Jun-03 22:32N 46°09' W 001°09'0 0.0
2016-Jun-03 21:32N 46°09' W 001°09'0 0.0
2016-Jun-03 20:29N 46°09' W 001°09'0 0.0
2016-Jun-03 19:32N 46°09' W 001°09'0 0.0
2016-Jun-03 18:32N 46°09' W 001°09'0 0.0
2016-Jun-03 17:32N 46°09' W 001°09'0 0.0
2016-Jun-03 16:32N 46°09' W 001°09'0 0.0
2016-Jun-03 15:32N 46°09' W 001°09'0 0.0
2016-Jun-03 14:32N 46°09' W 001°09'0 0.0
2016-Jun-03 13:32N 46°09' W 001°09'0 0.0
2016-Jun-03 12:32N 46°09' W 001°09'0 0.0
2016-Jun-03 11:32N 46°09' W 001°09'0 0.0
2016-Jun-03 10:32N 46°09' W 001°09'0 0.0
2016-Jun-03 09:32N 46°09' W 001°09'0 0.0
2016-Jun-03 08:32N 46°09' W 001°09'0 0.0
2016-Jun-03 07:32N 46°09' W 001°09'0 0.0
2016-Jun-03 06:29N 46°09' W 001°09'0 0.0
2016-Jun-03 05:32N 46°09' W 001°09'0 0.0
2016-Jun-03 04:32N 46°09' W 001°09'0 0.0
2016-Jun-03 03:32N 46°09' W 001°09'0 0.0
2016-Jun-03 02:32N 46°09' W 001°09'0 0.0
2016-Jun-03 01:32N 46°09' W 001°09'0 0.0
2016-Jun-03 00:32N 46°09' W 001°09'0 0.0
2016-Jun-02 23:32N 46°09' W 001°09'0 0.0
2016-Jun-02 22:32N 46°09' W 001°09'0 0.0
2016-Jun-02 21:32N 46°09' W 001°09'0 0.0
2016-Jun-02 20:32N 46°09' W 001°09'0 0.0
2016-Jun-02 19:32N 46°09' W 001°09'0 0.0
2016-Jun-02 18:32N 46°09' W 001°09'0 0.0
2016-Jun-02 17:32N 46°09' W 001°09'0 0.0
2016-Jun-02 16:32N 46°09' W 001°09'0 0.0
2016-Jun-02 15:32N 46°09' W 001°09'0 0.0
2016-Jun-02 14:29N 46°09' W 001°09'0 0.0
2016-Jun-02 13:32N 46°09' W 001°09'0 0.0
2016-Jun-02 12:32N 46°09' W 001°09'0 0.0
2016-Jun-02 11:32N 46°09' W 001°09'0 0.0
2016-Jun-02 10:32N 46°09' W 001°09'0 0.0
2016-Jun-02 09:32N 46°09' W 001°09'0 0.0
2016-Jun-02 08:32N 46°09' W 001°09'0 0.0
2016-Jun-02 07:32N 46°09' W 001°09'0 0.0
2016-Jun-02 06:29N 46°09' W 001°09'0 0.0
2016-Jun-02 05:32N 46°09' W 001°09'0 0.0
2016-Jun-02 04:32N 46°09' W 001°09'0 0.0
2016-Jun-02 03:32N 46°09' W 001°09'0 0.0
2016-Jun-02 02:29N 46°09' W 001°09'0 0.0
2016-Jun-02 01:32N 46°09' W 001°09'0 0.0
2016-Jun-02 00:32N 46°09' W 001°09'0 0.0
2016-Jun-01 23:32N 46°09' W 001°09'0 0.0
2016-Jun-01 22:32N 46°09' W 001°09'0 0.0
2016-Jun-01 21:32N 46°09' W 001°09'0 0.0
2016-Jun-01 20:32N 46°09' W 001°09'0 0.0
2016-Jun-01 19:32N 46°09' W 001°09'0 0.0
2016-Jun-01 18:32N 46°09' W 001°09'0 0.0
2016-Jun-01 17:32N 46°09' W 001°09'0 0.0
2016-Jun-01 16:32N 46°09' W 001°09'0 0.0
2016-Jun-01 15:32N 46°09' W 001°09'0 0.0
2016-Jun-01 14:32N 46°09' W 001°09'0 0.0
2016-Jun-01 13:32N 46°09' W 001°09'0 0.0
2016-Jun-01 12:32N 46°09' W 001°09'0 0.0
2016-Jun-01 11:32N 46°09' W 001°09'0 0.0
2016-Jun-01 10:32N 46°09' W 001°09'0 0.0
2016-Jun-01 09:32N 46°09' W 001°09'0 0.0
2016-Jun-01 08:32N 46°09' W 001°09'0 0.0
2016-Jun-01 07:32N 46°09' W 001°09'0 0.0
2016-Jun-01 06:32N 46°09' W 001°09'0 0.0
2016-Jun-01 05:32N 46°09' W 001°09'0 0.0
2016-Jun-01 04:32N 46°09' W 001°09'0 0.0
2016-Jun-01 03:32N 46°09' W 001°09'0 0.0
2016-Jun-01 02:32N 46°09' W 001°09'0 0.0
2016-Jun-01 01:32N 46°09' W 001°09'0 0.0
2016-Jun-01 00:32N 46°09' W 001°09'0 0.0
2016-May-31 23:32N 46°09' W 001°09'0 0.0
2016-May-31 22:32N 46°09' W 001°09'0 0.0
2016-May-31 21:29N 46°09' W 001°09'0 0.0
2016-May-31 20:32N 46°09' W 001°09'0 0.0
2016-May-31 19:32N 46°09' W 001°09'0 0.0
2016-May-31 18:29N 46°09' W 001°09'0 0.0
2016-May-31 17:32N 46°09' W 001°09'0 0.0
2016-May-31 16:31N 46°09' W 001°09'0 0.0
2016-May-31 15:28N 46°09' W 001°09'0 0.0
2016-May-31 14:29N 46°09' W 001°09'0 0.0
2016-May-31 13:32N 46°09' W 001°09'0 0.0
2016-May-31 12:31N 46°09' W 001°09'0 0.0
2016-May-31 11:31N 46°09' W 001°09'0 0.0
2016-May-31 10:32N 46°09' W 001°09'0 0.0
2016-May-31 09:31N 46°09' W 001°09'0 0.0
2016-May-31 08:31N 46°09' W 001°09'0 0.0
2016-May-31 07:31N 46°09' W 001°09'0 0.0
2016-May-31 06:31N 46°09' W 001°09'0 0.0
2016-May-31 04:31N 46°09' W 001°09'0 0.0
2016-May-31 03:31N 46°09' W 001°09'0 0.0
2016-May-31 02:31N 46°09' W 001°09'0 0.0
2016-May-31 01:31N 46°09' W 001°09'0 0.0
2016-May-31 00:31N 46°09' W 001°09'0 0.0
2016-May-30 23:31N 46°09' W 001°09'0 0.0
2016-May-30 22:31N 46°09' W 001°09'0 0.0
2016-May-30 21:31N 46°09' W 001°09'0 0.0
2016-May-30 20:31N 46°09' W 001°09'0 0.0
2016-May-30 19:31N 46°09' W 001°09'0 0.0
2016-May-30 18:31N 46°09' W 001°09'0 0.0
2016-May-30 17:28N 46°09' W 001°09'0 0.0
2016-May-30 16:31N 46°09' W 001°09'0 0.0
2016-May-30 15:31N 46°09' W 001°09'0 0.0
2016-May-30 14:31N 46°09' W 001°09'0 0.0
2016-May-30 13:31N 46°09' W 001°09'0 0.0
2016-May-30 12:31N 46°09' W 001°09'0 0.0
2016-May-30 11:28N 46°09' W 001°09'0 0.0
2016-May-30 10:31N 46°09' W 001°09'0 0.0
2016-May-30 09:31N 46°09' W 001°09'0 0.0
2016-May-30 08:31N 46°09' W 001°09'0 0.0
2016-May-30 07:31N 46°09' W 001°09'0 0.0
2016-May-30 06:31N 46°09' W 001°09'0 0.0
2016-May-30 05:31N 46°09' W 001°09'0 0.0
2016-May-30 04:31N 46°09' W 001°09'0 0.0
2016-May-30 03:28N 46°09' W 001°09'0 0.0
2016-May-30 02:31N 46°09' W 001°09'0 0.0
2016-May-30 01:31N 46°09' W 001°09'0 0.0
2016-May-30 00:31N 46°09' W 001°09'0 0.0
2016-May-29 23:31N 46°09' W 001°09'0 0.0
2016-May-29 22:31N 46°09' W 001°09'0 0.0
2016-May-29 21:31N 46°09' W 001°09'0 0.0
2016-May-29 20:31N 46°09' W 001°09'0 0.0
2016-May-29 19:31N 46°09' W 001°09'0 0.0
2016-May-29 18:31N 46°09' W 001°09'0 0.0
2016-May-29 17:31N 46°09' W 001°09'0 0.0
2016-May-29 16:31N 46°09' W 001°09'0 0.0
2016-May-29 15:31N 46°09' W 001°09'0 0.0
2016-May-29 14:31N 46°09' W 001°09'0 0.0
2016-May-29 13:28N 46°09' W 001°09'0 0.0
2016-May-29 12:28N 46°09' W 001°09'0 0.0
2016-May-29 11:33N 46°09' W 001°09'0 0.0
2016-May-29 10:33N 46°09' W 001°09'1 1.4
2016-May-29 09:33N 46°09' W 001°11'4 4.3
2016-May-29 08:33N 46°06' W 001°16'5 5.5
2016-May-29 07:33N 46°01' W 001°12'1 0.5
2016-May-29 06:27N 46°00' W 001°11'0 0.0
2016-May-29 05:33N 46°00' W 001°11'0 0.1
2016-May-29 04:33N 46°01' W 001°11'0 0.0
2016-May-29 03:33N 46°01' W 001°11'  
Track history (hours):
 
Tides and Currents Weather Stations Pressure Air Temp Water Temp Dewpoint Dewpoint Depression Visibility Wind Speed Wind Dir Waves Ship Positions

Picton Castle (Cook Islands)

Ship's website: http://www.picton-castle.com/

Last reported at 2016-Jun-08 02:17 UTC. Time now 2016-Jun-25 17:55 UTC.
Position N 45°24' W 002°59'.
Warning: this ship's position is 17 days out of date.

; draft 4.4 m.

Type: Sailing vessel. MMSI: 518000019.

Date/timePositionNaut miles runAvg speedWind from/ knotsBaromVisibWave heightAir tempDewpointWater temp
2016-Jun-08 02:17N 45°24' W 002°59'6 6.5
2016-Jun-08 01:26N 45°25' W 002°52'6 6.6
2016-Jun-08 00:33N 45°27' W 002°44'7 6.6
2016-Jun-07 23:33N 45°29' W 002°35'7 7.4
2016-Jun-07 22:33N 45°31' W 002°25'8 7.9
2016-Jun-07 21:33N 45°34' W 002°14'8 8.1
2016-Jun-07 20:33N 45°37' W 002°04'6 6.5
2016-Jun-07 19:33N 45°40' W 001°55'6 4.4
2016-Jun-07 18:14N 45°43' W 001°48'3 4.0
2016-Jun-07 17:33N 45°46' W 001°46'9 4.1
2016-Jun-07 15:24N 45°53' W 001°40'4 4.4
2016-Jun-07 14:32N 45°56' W 001°37'5 4.4
2016-Jun-07 13:24N 46°00' W 001°32'9 3.2
2016-Jun-07 10:33N 46°08' W 001°25'3 2.6
2016-Jun-07 09:28N 46°06' W 001°22'3 2.9
2016-Jun-07 08:34N 46°04' W 001°20'2 2.0
2016-Jun-07 07:33N 46°05' W 001°17'2 1.8
2016-Jun-07 06:30N 46°03' W 001°18'0 0.0
2016-Jun-07 04:33N 46°03' W 001°18'0 0.0
2016-Jun-07 03:33N 46°03' W 001°18'0 0.0
2016-Jun-07 02:27N 46°03' W 001°18'0 0.0
2016-Jun-07 01:33N 46°03' W 001°18'0 0.0
2016-Jun-07 00:33N 46°03' W 001°18'0 0.0
2016-Jun-06 23:33N 46°03' W 001°18'0 0.0
2016-Jun-06 20:33N 46°03' W 001°18'0 0.0
2016-Jun-06 16:30N 46°03' W 001°18'0 0.0
2016-Jun-06 15:33N 46°03' W 001°18'0 0.0
2016-Jun-06 14:33N 46°03' W 001°18'0 0.0
2016-Jun-06 13:33N 46°03' W 001°18'0 0.0
2016-Jun-06 12:18N 46°03' W 001°18'0 0.0
2016-Jun-06 11:27N 46°03' W 001°18'0 0.0
2016-Jun-06 10:30N 46°03' W 001°18'0 0.0
2016-Jun-06 09:24N 46°03' W 001°18'0 0.0
2016-Jun-06 08:30N 46°03' W 001°18'0 0.0
2016-Jun-06 03:18N 46°03' W 001°18'0 0.0
2016-Jun-06 02:33N 46°03' W 001°18'0 0.0
2016-Jun-06 01:33N 46°03' W 001°18'0 0.0
2016-Jun-06 00:33N 46°03' W 001°18'0 0.0
2016-Jun-05 23:33N 46°03' W 001°18'0 0.0
2016-Jun-05 22:33N 46°03' W 001°18'0 0.0
2016-Jun-05 21:06N 46°03' W 001°18'0 0.0
2016-Jun-05 20:33N 46°03' W 001°18'0 0.0
2016-Jun-05 17:06N 46°03' W 001°18'0 0.1
2016-Jun-05 16:33N 46°03' W 001°18'0 0.0
2016-Jun-05 15:33N 46°03' W 001°18'0 0.0
2016-Jun-05 14:33N 46°03' W 001°18'0 0.0
2016-Jun-05 13:33N 46°03' W 001°18'0 0.0
2016-Jun-05 12:30N 46°03' W 001°18'0 0.0
2016-Jun-05 11:33N 46°03' W 001°18'0 0.0
2016-Jun-05 10:33N 46°03' W 001°18'0 0.0
2016-Jun-05 09:33N 46°03' W 001°18'0 0.0
2016-Jun-05 08:33N 46°03' W 001°18'0 0.0
2016-Jun-05 07:30N 46°03' W 001°18'0 0.0
2016-Jun-05 03:06N 46°03' W 001°18'0 0.0
2016-Jun-05 02:30N 46°03' W 001°18'0 0.0
2016-Jun-05 01:30N 46°03' W 001°18'0 0.0
2016-Jun-05 00:33N 46°03' W 001°18'0 0.0
2016-Jun-04 23:33N 46°03' W 001°18'0 0.0
2016-Jun-04 22:33N 46°03' W 001°18'0 0.0
2016-Jun-04 21:33N 46°03' W 001°18'0 0.0
2016-Jun-04 19:14N 46°03' W 001°18'0 0.0
2016-Jun-04 18:33N 46°03' W 001°18'1 0.8
2016-Jun-04 17:28N 46°04' W 001°18'4 3.9
2016-Jun-04 16:34N 46°07' W 001°14'3 3.1
2016-Jun-04 15:33N 46°09' W 001°11'1 1.4
2016-Jun-04 14:32N 46°09' W 001°09'0 0.0
2016-Jun-04 13:32N 46°09' W 001°09'0 0.0
2016-Jun-04 12:32N 46°09' W 001°09'0 0.0
2016-Jun-04 11:26N 46°09' W 001°09'0 0.0
2016-Jun-04 10:32N 46°09' W 001°09'0 0.0
2016-Jun-04 09:32N 46°09' W 001°09'0 0.0
2016-Jun-04 08:32N 46°09' W 001°09'0 0.0
2016-Jun-04 07:32N 46°09' W 001°09'0 0.0
2016-Jun-04 06:32N 46°09' W 001°09'0 0.0
2016-Jun-04 05:32N 46°09' W 001°09'0 0.0
2016-Jun-04 04:32N 46°09' W 001°09'0 0.0
2016-Jun-04 03:32N 46°09' W 001°09'0 0.0
2016-Jun-04 02:32N 46°09' W 001°09'0 0.0
2016-Jun-04 01:32N 46°09' W 001°09'0 0.0
2016-Jun-04 00:32N 46°09' W 001°09'0 0.0
2016-Jun-03 23:32N 46°09' W 001°09'0 0.0
2016-Jun-03 22:32N 46°09' W 001°09'0 0.0
2016-Jun-03 21:32N 46°09' W 001°09'0 0.0
2016-Jun-03 20:29N 46°09' W 001°09'0 0.0
2016-Jun-03 19:32N 46°09' W 001°09'0 0.0
2016-Jun-03 18:32N 46°09' W 001°09'0 0.0
2016-Jun-03 17:32N 46°09' W 001°09'0 0.0
2016-Jun-03 16:32N 46°09' W 001°09'0 0.0
2016-Jun-03 15:32N 46°09' W 001°09'0 0.0
2016-Jun-03 14:32N 46°09' W 001°09'0 0.0
2016-Jun-03 13:32N 46°09' W 001°09'0 0.0
2016-Jun-03 12:32N 46°09' W 001°09'0 0.0
2016-Jun-03 11:32N 46°09' W 001°09'0 0.0
2016-Jun-03 10:32N 46°09' W 001°09'0 0.0
2016-Jun-03 09:32N 46°09' W 001°09'0 0.0
2016-Jun-03 08:32N 46°09' W 001°09'0 0.0
2016-Jun-03 07:32N 46°09' W 001°09'0 0.0
2016-Jun-03 06:29N 46°09' W 001°09'0 0.0
2016-Jun-03 05:32N 46°09' W 001°09'0 0.0
2016-Jun-03 04:32N 46°09' W 001°09'0 0.0
2016-Jun-03 03:32N 46°09' W 001°09'0 0.0
2016-Jun-03 02:32N 46°09' W 001°09'0 0.0
2016-Jun-03 01:32N 46°09' W 001°09'0 0.0
2016-Jun-03 00:32N 46°09' W 001°09'0 0.0
2016-Jun-02 23:32N 46°09' W 001°09'0 0.0
2016-Jun-02 22:32N 46°09' W 001°09'0 0.0
2016-Jun-02 21:32N 46°09' W 001°09'0 0.0
2016-Jun-02 20:32N 46°09' W 001°09'0 0.0
2016-Jun-02 19:32N 46°09' W 001°09'0 0.0
2016-Jun-02 18:32N 46°09' W 001°09'0 0.0
2016-Jun-02 17:32N 46°09' W 001°09'0 0.0
2016-Jun-02 16:32N 46°09' W 001°09'0 0.0
2016-Jun-02 15:32N 46°09' W 001°09'0 0.0
2016-Jun-02 14:29N 46°09' W 001°09'0 0.0
2016-Jun-02 13:32N 46°09' W 001°09'0 0.0
2016-Jun-02 12:32N 46°09' W 001°09'0 0.0
2016-Jun-02 11:32N 46°09' W 001°09'0 0.0
2016-Jun-02 10:32N 46°09' W 001°09'0 0.0
2016-Jun-02 09:32N 46°09' W 001°09'0 0.0
2016-Jun-02 08:32N 46°09' W 001°09'0 0.0
2016-Jun-02 07:32N 46°09' W 001°09'0 0.0
2016-Jun-02 06:29N 46°09' W 001°09'0 0.0
2016-Jun-02 05:32N 46°09' W 001°09'0 0.0
2016-Jun-02 04:32N 46°09' W 001°09'0 0.0
2016-Jun-02 03:32N 46°09' W 001°09'0 0.0
2016-Jun-02 02:29N 46°09' W 001°09'0 0.0
2016-Jun-02 01:32N 46°09' W 001°09'0 0.0
2016-Jun-02 00:32N 46°09' W 001°09'0 0.0
2016-Jun-01 23:32N 46°09' W 001°09'0 0.0
2016-Jun-01 22:32N 46°09' W 001°09'0 0.0
2016-Jun-01 21:32N 46°09' W 001°09'0 0.0
2016-Jun-01 20:32N 46°09' W 001°09'0 0.0
2016-Jun-01 19:32N 46°09' W 001°09'0 0.0
2016-Jun-01 18:32N 46°09' W 001°09'0 0.0
2016-Jun-01 17:32N 46°09' W 001°09'0 0.0
2016-Jun-01 16:32N 46°09' W 001°09'0 0.0
2016-Jun-01 15:32N 46°09' W 001°09'0 0.0
2016-Jun-01 14:32N 46°09' W 001°09'0 0.0
2016-Jun-01 13:32N 46°09' W 001°09'0 0.0
2016-Jun-01 12:32N 46°09' W 001°09'0 0.0
2016-Jun-01 11:32N 46°09' W 001°09'0 0.0
2016-Jun-01 10:32N 46°09' W 001°09'0 0.0
2016-Jun-01 09:32N 46°09' W 001°09'0 0.0
2016-Jun-01 08:32N 46°09' W 001°09'0 0.0
2016-Jun-01 07:32N 46°09' W 001°09'0 0.0
2016-Jun-01 06:32N 46°09' W 001°09'0 0.0
2016-Jun-01 05:32N 46°09' W 001°09'0 0.0
2016-Jun-01 04:32N 46°09' W 001°09'0 0.0
2016-Jun-01 03:32N 46°09' W 001°09'0 0.0
2016-Jun-01 02:32N 46°09' W 001°09'0 0.0
2016-Jun-01 01:32N 46°09' W 001°09'0 0.0
2016-Jun-01 00:32N 46°09' W 001°09'0 0.0
2016-May-31 23:32N 46°09' W 001°09'0 0.0
2016-May-31 22:32N 46°09' W 001°09'0 0.0
2016-May-31 21:29N 46°09' W 001°09'0 0.0
2016-May-31 20:32N 46°09' W 001°09'0 0.0
2016-May-31 19:32N 46°09' W 001°09'0 0.0
2016-May-31 18:29N 46°09' W 001°09'0 0.0
2016-May-31 17:32N 46°09' W 001°09'0 0.0
2016-May-31 16:31N 46°09' W 001°09'0 0.0
2016-May-31 15:28N 46°09' W 001°09'0 0.0
2016-May-31 14:29N 46°09' W 001°09'0 0.0
2016-May-31 13:32N 46°09' W 001°09'0 0.0
2016-May-31 12:31N 46°09' W 001°09'0 0.0
2016-May-31 11:31N 46°09' W 001°09'0 0.0
2016-May-31 10:32N 46°09' W 001°09'0 0.0
2016-May-31 09:31N 46°09' W 001°09'0 0.0
2016-May-31 08:31N 46°09' W 001°09'0 0.0
2016-May-31 07:31N 46°09' W 001°09'0 0.0
2016-May-31 06:31N 46°09' W 001°09'0 0.0
2016-May-31 04:31N 46°09' W 001°09'0 0.0
2016-May-31 03:31N 46°09' W 001°09'0 0.0
2016-May-31 02:31N 46°09' W 001°09'0 0.0
2016-May-31 01:31N 46°09' W 001°09'0 0.0
2016-May-31 00:31N 46°09' W 001°09'0 0.0
2016-May-30 23:31N 46°09' W 001°09'0 0.0
2016-May-30 22:31N 46°09' W 001°09'0 0.0
2016-May-30 21:31N 46°09' W 001°09'0 0.0
2016-May-30 20:31N 46°09' W 001°09'0 0.0
2016-May-30 19:31N 46°09' W 001°09'0 0.0
2016-May-30 18:31N 46°09' W 001°09'0 0.0
2016-May-30 17:28N 46°09' W 001°09'0 0.0
2016-May-30 16:31N 46°09' W 001°09'0 0.0
2016-May-30 15:31N 46°09' W 001°09'0 0.0
2016-May-30 14:31N 46°09' W 001°09'0 0.0
2016-May-30 13:31N 46°09' W 001°09'0 0.0
2016-May-30 12:31N 46°09' W 001°09'0 0.0
2016-May-30 11:28N 46°09' W 001°09'0 0.0
2016-May-30 10:31N 46°09' W 001°09'0 0.0
2016-May-30 09:31N 46°09' W 001°09'0 0.0
2016-May-30 08:31N 46°09' W 001°09'0 0.0
2016-May-30 07:31N 46°09' W 001°09'0 0.0
2016-May-30 06:31N 46°09' W 001°09'0 0.0
2016-May-30 05:31N 46°09' W 001°09'0 0.0
2016-May-30 04:31N 46°09' W 001°09'0 0.0
2016-May-30 03:28N 46°09' W 001°09'0 0.0
2016-May-30 02:31N 46°09' W 001°09'0 0.0
2016-May-30 01:31N 46°09' W 001°09'0 0.0
2016-May-30 00:31N 46°09' W 001°09'0 0.0
2016-May-29 23:31N 46°09' W 001°09'0 0.0
2016-May-29 22:31N 46°09' W 001°09'0 0.0
2016-May-29 21:31N 46°09' W 001°09'0 0.0
2016-May-29 20:31N 46°09' W 001°09'0 0.0
2016-May-29 19:31N 46°09' W 001°09'0 0.0
2016-May-29 18:31N 46°09' W 001°09'0 0.0
2016-May-29 17:31N 46°09' W 001°09'0 0.0
2016-May-29 16:31N 46°09' W 001°09'0 0.0
2016-May-29 15:31N 46°09' W 001°09'0 0.0
2016-May-29 14:31N 46°09' W 001°09'0 0.0
2016-May-29 13:28N 46°09' W 001°09'0 0.0
2016-May-29 12:28N 46°09' W 001°09'0 0.0
2016-May-29 11:33N 46°09' W 001°09'0 0.0
2016-May-29 10:33N 46°09' W 001°09'1 1.4
2016-May-29 09:33N 46°09' W 001°11'4 4.3
2016-May-29 08:33N 46°06' W 001°16'5 5.5
2016-May-29 07:33N 46°01' W 001°12'1 0.5
2016-May-29 06:27N 46°00' W 001°11'0 0.0
2016-May-29 05:33N 46°00' W 001°11'0 0.1
2016-May-29 04:33N 46°01' W 001°11'0 0.0
2016-May-29 03:33N 46°01' W 001°11'  

Dump ship's entire track history